Aérodrome :
LOGIN :

S'inscrire | Disclaimer

   EN    FR    IT 

 










Légende :    VFR   VFR Marginal   IFR   IFR Intensif   IFR Très Intensif
Visi : 
Plafond : 
>= 8 km
>= 3000ft
5 à 8 km
1000 à 3000 ft
1500m à 5 km
500 à 1000 ft
800 à 1500m
200 à 500 ft
< 800m
< 200 ft
Symboles :   Orages  Brouillard  Fortes neiges  Fortes précipitations  Vent > 20 kt
SIGMETs :   Divers  Orages  Givrage  Turbulence  Onde Orograph.  Cendres Volcan.







- Altitude de l'aérodrome : 33 ft
- Code IATA : MHZ


EGUN - RAF Mildenhall

DERNIER METAR :
  • 192156Z AUTO 19003KT 9999 CLR 09/09 A3014 RMK AO2 SLP210 T00920092 $

METARs EXPIRÉS :
  • 192056Z AUTO 21005KT 9999 CLR 09/09 A3014 RMK AO2 SLP210 T00920092 50001 .
  • 191956Z AUTO 21004KT 9999 CLR 10/10 A3014 RMK AO2 SLP210 T00970097 $

TAF TAF EGUN
Valide du 19 à 20h jusqu'au 21 à 02h UTC


192000Z 1920/2102 VRB06KT 9999 SCT030 BKN050 QNH3011INS
BECMG 2001/2002 VRB06KT 6000 BR SCT010 BKN030 QNH3008INS
TEMPO 2004/2007 3200 BR
BECMG 2007/2008 22010G15KT 9000 -SHRA SCT015 BKN020 QNH3001INS
BECMG 2017/2018 20009KT 9999 NSW SCT020 BKN030 QNH2999INS TX18/2014Z TN07/2002Z
Pas de NOTAMs connus pour ce terrain.



MET'MAP, la Météo Aéronautique d'un coup d'oeil ! - Copyright ORBIFLY Décembre 2007 - Disclaimer

ORBIFLY MET'MAP TEAM :

Programmation & Développement : Alexandra Zaïnal
Conception & Développement : Baudouin d'Aumeries
Co-Programmation & Développement : Marc-Olivier Méhu
Soutien technique & logistique : Manuel Goepfert

Contact : metmap@orbifly.com




SOURCES & CREDITS :

   NOAA